createdAt,value
2019-02-09T00:04:38.257Z,6.42
2019-02-09T00:10:01.149Z,6.42
2019-02-09T00:15:19.885Z,6.43
2019-02-09T00:20:38.504Z,6.34
2019-02-09T00:25:57.103Z,6.35
2019-02-09T00:31:15.732Z,6.33
2019-02-09T00:36:34.375Z,6.27
2019-02-09T00:41:52.905Z,6.28
2019-02-09T00:47:11.521Z,6.23
2019-02-09T00:52:30.057Z,6.19
2019-02-09T00:57:48.690Z,6.14
2019-02-09T01:03:07.250Z,6.05
2019-02-09T01:08:26.207Z,6.03
2019-02-09T01:13:44.693Z,5.99
2019-02-09T01:19:03.217Z,5.93
2019-02-09T01:24:21.698Z,5.87
2019-02-09T01:29:40.157Z,5.82
2019-02-09T01:34:58.793Z,5.79
2019-02-09T01:40:20.305Z,5.77
2019-02-09T01:45:39.224Z,5.73
2019-02-09T01:50:57.835Z,5.76
2019-02-09T01:56:16.432Z,5.75
2019-02-09T02:01:35.001Z,5.68
2019-02-09T02:06:53.570Z,5.66
2019-02-09T02:12:12.164Z,5.68
2019-02-09T02:17:30.786Z,5.70
2019-02-09T02:22:49.410Z,5.71
2019-02-09T02:28:08.097Z,5.68
2019-02-09T02:33:26.558Z,5.67
2019-02-09T02:38:45.091Z,5.75
2019-02-09T02:44:03.844Z,5.75
2019-02-09T02:49:22.403Z,5.84
2019-02-09T03:07:23.659Z,5.67
2019-02-09T03:12:42.322Z,5.75
2019-02-09T03:18:01.243Z,5.76
2019-02-09T03:23:20.060Z,5.81
2019-02-09T03:28:38.665Z,5.82
2019-02-09T03:33:57.215Z,5.90
2019-02-09T03:39:16.106Z,6.01
2019-02-09T03:44:34.699Z,6.03
2019-02-09T03:49:53.447Z,6.04
2019-02-09T03:55:12.381Z,6.09
2019-02-09T04:00:33.653Z,6.07
2019-02-09T04:05:52.202Z,5.95
2019-02-09T04:11:10.757Z,6.07
2019-02-09T04:16:29.259Z,6.24
2019-02-09T04:21:47.734Z,6.33
2019-02-09T04:27:06.264Z,6.37
2019-02-09T04:32:24.734Z,6.45
2019-02-09T04:37:43.548Z,6.47
2019-02-09T04:43:02.165Z,6.57
2019-02-09T04:48:20.840Z,6.59
2019-02-09T04:53:39.376Z,6.49
2019-02-09T04:58:57.978Z,6.35
2019-02-09T05:04:16.631Z,6.19
2019-02-09T05:09:35.233Z,6.15
2019-02-09T05:14:53.864Z,6.23
2019-02-09T05:20:15.029Z,6.33
2019-02-09T05:25:33.577Z,6.19
2019-02-09T05:30:52.446Z,6.17
2019-02-09T05:36:11.053Z,6.31
2019-02-09T05:41:29.626Z,6.41
2019-02-09T05:46:48.186Z,6.52
2019-02-09T05:52:06.970Z,6.57
2019-02-09T05:57:25.592Z,6.48
2019-02-09T06:02:48.843Z,6.51
2019-02-09T06:08:08.679Z,6.56
2019-02-09T06:13:28.725Z,6.48
2019-02-09T06:18:48.154Z,6.53
2019-02-09T06:24:06.800Z,6.64
2019-02-09T06:29:25.432Z,6.62
2019-02-09T06:34:46.960Z,6.67
2019-02-09T06:40:09.517Z,6.70
2019-02-09T06:45:28.410Z,6.71
2019-02-09T06:50:47.017Z,6.49
2019-02-09T06:56:06.031Z,6.49
2019-02-09T07:01:24.862Z,6.22
2019-02-09T07:06:43.411Z,6.03
2019-02-09T07:12:02.045Z,5.94
2019-02-09T07:17:20.596Z,5.86
2019-02-09T07:22:39.205Z,5.75
2019-02-09T07:27:57.839Z,5.67
2019-02-09T07:33:16.432Z,5.73
2019-02-09T07:38:34.888Z,5.75
2019-02-09T07:43:53.438Z,5.91
2019-02-09T07:49:11.987Z,5.87
2019-02-09T07:54:30.595Z,5.57
2019-02-09T07:59:49.403Z,5.31
2019-02-09T08:05:10.802Z,5.31
2019-02-09T08:10:39.710Z,5.39
2019-02-09T08:15:58.687Z,5.54
2019-02-09T08:21:17.293Z,5.68
2019-02-09T08:26:35.752Z,5.71
2019-02-09T08:31:54.288Z,5.58
2019-02-09T08:37:12.889Z,5.78
2019-02-09T08:42:31.505Z,6.06
2019-02-09T08:47:50.440Z,6.04
2019-02-09T08:53:09.043Z,6.48
2019-02-09T08:58:27.579Z,6.33
2019-02-09T09:03:46.131Z,6.51
2019-02-09T09:09:07.665Z,6.58
2019-02-09T09:14:26.406Z,6.84
2019-02-09T09:19:44.941Z,6.92
2019-02-09T09:25:03.584Z,7.09
2019-02-09T09:30:24.377Z,7.31
2019-02-09T09:35:43.196Z,7.64
2019-02-09T09:41:02.514Z,7.54
2019-02-09T09:46:21.214Z,7.39
2019-02-09T09:51:39.825Z,7.56
2019-02-09T09:56:58.389Z,7.61
2019-02-09T10:02:18.452Z,7.51
2019-02-09T10:07:37.064Z,7.69
2019-02-09T10:12:55.691Z,7.88
2019-02-09T10:18:14.514Z,7.78
2019-02-09T10:23:33.268Z,7.78
2019-02-09T10:28:52.017Z,7.87
2019-02-09T10:34:10.560Z,8.07
2019-02-09T10:39:29.396Z,8.06
2019-02-09T10:44:47.924Z,8.13
2019-02-09T10:50:09.432Z,8.07
2019-02-09T10:55:28.063Z,8.08
2019-02-09T11:00:49.570Z,8.28
2019-02-09T11:06:08.166Z,8.11
2019-02-09T11:11:26.782Z,8.07
2019-02-09T11:16:45.249Z,8.12
2019-02-09T11:22:03.794Z,8.14
2019-02-09T11:27:22.428Z,8.17
2019-02-09T11:32:40.895Z,8.06
2019-02-09T11:37:59.516Z,7.94
2019-02-09T11:43:18.054Z,8.07
2019-02-09T11:48:36.586Z,8.20
2019-02-09T11:53:55.123Z,7.97
2019-02-09T11:59:13.733Z,7.89
2019-02-09T12:04:32.200Z,8.07
2019-02-09T12:09:50.746Z,8.24
2019-02-09T12:15:12.277Z,8.64
2019-02-09T12:20:37.448Z,8.69
2019-02-09T12:25:55.981Z,8.60
2019-02-09T12:31:14.596Z,8.68
2019-02-09T12:36:33.159Z,8.66
2019-02-09T12:41:51.770Z,8.93
2019-02-09T12:47:10.396Z,8.82
2019-02-09T12:52:28.946Z,8.70
2019-02-09T12:57:47.659Z,8.34
2019-02-09T13:03:17.685Z,8.21
2019-02-09T13:08:36.305Z,8.21
2019-02-09T13:13:57.539Z,8.20
2019-02-09T13:19:22.000Z,8.19
2019-02-09T13:24:40.641Z,8.22
2019-02-09T13:29:59.187Z,8.35
2019-02-09T13:35:18.099Z,8.48
2019-02-09T13:40:36.702Z,8.69
2019-02-09T13:45:55.339Z,8.85
2019-02-09T13:51:13.941Z,8.88
2019-02-09T13:56:32.568Z,9.01
2019-02-09T14:01:51.189Z,9.13
2019-02-09T14:07:09.763Z,9.14
2019-02-09T14:12:28.379Z,9.15
2019-02-09T14:17:46.919Z,8.94
2019-02-09T14:23:05.822Z,8.68
2019-02-09T14:28:26.094Z,8.73
2019-02-09T14:33:45.690Z,8.62
2019-02-09T14:39:07.212Z,7.85
2019-02-09T14:44:25.841Z,6.76
2019-02-09T14:49:44.382Z,6.34
2019-02-09T14:55:03.103Z,6.22
2019-02-09T15:00:27.260Z,6.10
2019-02-09T15:05:45.868Z,6.14
2019-02-09T15:11:04.575Z,6.04
2019-02-09T15:16:26.570Z,6.00
2019-02-09T15:21:45.200Z,6.00
2019-02-09T15:27:03.922Z,6.04
2019-02-09T15:32:22.539Z,6.03
2019-02-09T15:37:41.077Z,6.12
2019-02-09T15:42:59.733Z,6.18
2019-02-09T15:48:18.262Z,6.29
2019-02-09T15:53:36.979Z,6.29
2019-02-09T15:58:55.614Z,6.55
2019-02-09T16:04:17.895Z,6.55
2019-02-09T16:09:34.525Z,6.75
2019-02-09T16:14:53.059Z,6.63
2019-02-09T16:20:16.960Z,6.78
2019-02-09T16:25:37.058Z,6.83
2019-02-09T16:30:55.583Z,7.01
2019-02-09T16:36:14.131Z,7.06
2019-02-09T16:41:32.738Z,7.02
2019-02-09T16:46:51.354Z,7.08
2019-02-09T16:52:09.980Z,7.21
2019-02-09T16:57:28.587Z,7.22
2019-02-09T17:02:47.201Z,7.35
2019-02-09T17:08:06.021Z,7.36
2019-02-09T17:13:24.633Z,7.50
2019-02-09T17:18:43.462Z,7.52
2019-02-09T17:24:01.931Z,7.54
2019-02-09T17:29:20.526Z,7.59
2019-02-09T17:34:40.925Z,7.60
2019-02-09T17:39:59.312Z,7.49
2019-02-09T17:45:23.464Z,7.48
2019-02-09T17:50:49.179Z,7.48
2019-02-09T17:56:03.346Z,7.42
2019-02-09T18:01:22.630Z,7.38
2019-02-09T18:06:41.239Z,7.33
2019-02-09T18:12:00.422Z,7.37
2019-02-09T18:17:19.068Z,7.43
2019-02-09T18:22:38.429Z,7.41
2019-02-09T18:27:57.062Z,7.45
2019-02-09T18:33:15.603Z,7.47
2019-02-09T18:38:34.177Z,7.40
2019-02-09T18:43:52.650Z,7.37
2019-02-09T18:49:11.188Z,7.36
2019-02-09T18:54:29.729Z,7.37
2019-02-09T18:59:48.266Z,7.38
2019-02-09T19:05:08.974Z,7.34
2019-02-09T19:10:29.182Z,7.28
2019-02-09T19:15:47.796Z,7.30
2019-02-09T19:21:08.231Z,7.30
2019-02-09T19:26:26.875Z,7.36
2019-02-09T19:31:45.426Z,7.42
2019-02-09T19:37:04.259Z,7.21
2019-02-09T19:42:22.826Z,6.94
2019-02-09T19:47:41.441Z,6.76
2019-02-09T19:53:01.208Z,6.81
2019-02-09T19:58:19.806Z,6.79
2019-02-09T20:03:38.340Z,6.91
2019-02-09T20:08:56.894Z,6.80
2019-02-09T20:14:15.497Z,6.73
2019-02-09T20:19:34.063Z,6.86
2019-02-09T20:24:52.628Z,6.80
2019-02-09T20:30:21.371Z,6.90
2019-02-09T20:41:55.594Z,6.87
2019-02-09T20:47:14.328Z,6.88
2019-02-09T20:52:32.896Z,6.85
2019-02-09T20:57:51.518Z,6.79
2019-02-09T21:03:10.158Z,6.85
2019-02-09T21:08:28.764Z,6.88
2019-02-09T21:13:47.239Z,6.87
2019-02-09T21:19:06.042Z,6.87
2019-02-09T21:24:24.599Z,7.03
2019-02-09T21:29:46.155Z,7.03
2019-02-09T21:35:08.035Z,7.05
2019-02-09T21:40:33.533Z,7.13
2019-02-09T21:45:52.053Z,7.11
2019-02-09T21:51:12.937Z,7.11
2019-02-09T21:56:31.581Z,6.99
2019-02-09T22:01:50.146Z,6.90
2019-02-09T22:07:08.686Z,6.80
2019-02-09T22:12:27.256Z,6.79
2019-02-09T22:17:45.799Z,6.82
2019-02-09T22:23:04.833Z,6.84
2019-02-09T22:28:23.378Z,6.88
2019-02-09T22:33:42.905Z,6.78
2019-02-09T22:39:01.560Z,6.73
2019-02-09T22:44:20.480Z,6.69
2019-02-09T22:49:39.308Z,6.88
2019-02-09T22:55:12.043Z,6.69
2019-02-09T23:00:54.282Z,6.85
2019-02-09T23:06:20.603Z,6.84
2019-02-09T23:13:03.589Z,6.89
2019-02-09T23:17:35.654Z,6.91
2019-02-09T23:22:54.198Z,6.97
2019-02-09T23:28:12.822Z,6.99
2019-02-09T23:33:31.442Z,7.03
2019-02-09T23:38:50.001Z,7.07
2019-02-09T23:44:08.564Z,7.08
2019-02-09T23:49:27.221Z,6.92
2019-02-09T23:54:45.762Z,7.01
